Time;durP1;ratioP1;P1;durP2;ratioP2;P2;SDS_P1;SDS_P2;PMS_P1;PMS_P2;Temp;Humidity;BMP_temperature;BMP_pressure;BME280_temperature;BME280_humidity;BME280_pressure;Samples;Min_cycle;Max_cycle;Signal;HPM_P1;HPM_P2
2022/12/12 00:02:17;;;;;;;;;;;14.10;60.20;;;;;;5054772;28;19916;-9
2022/12/12 00:04:43;;;;;;;;;;;14.20;60.30;;;;;;5055584;28;20008;-9
2022/12/12 00:07:08;;;;;;;;;;;14.20;60.30;;;;;;5037963;28;19991;-9
2022/12/12 00:09:34;;;;;;;;;;;14.10;60.20;;;;;;5055379;28;19948;-9
2022/12/12 00:11:59;;;;;;;;;;;14.10;60.30;;;;;;5054626;28;20267;-9
2022/12/12 00:14:25;;;;;;;;;;;14.10;60.30;;;;;;5053912;28;19916;-9
2022/12/12 00:16:51;;;;;;;;;;;14.10;60.30;;;;;;5054589;28;19970;-9
2022/12/12 00:19:16;;;;;;;;;;;14.10;60.30;;;;;;5055717;28;19913;-9
2022/12/12 00:21:42;;;;;;;;;;;14.10;60.30;;;;;;5055227;28;20186;-9
2022/12/12 00:24:07;;;;;;;;;;;14.10;60.30;;;;;;5034556;28;20016;-9
2022/12/12 00:26:34;;;;;;;;;;;14.00;60.20;;;;;;5052667;28;19919;-9
2022/12/12 00:28:59;;;;;;;;;;;14.10;60.30;;;;;;5053493;28;20015;-9
2022/12/12 00:31:25;;;;;;;;;;;14.10;60.40;;;;;;5051335;28;20093;-9
2022/12/12 00:33:51;;;;;;;;;;;14.00;60.30;;;;;;5052109;28;19908;-9
2022/12/12 00:36:18;;;;;;;;;;;14.00;60.30;;;;;;5035245;28;19951;-9
2022/12/12 00:38:43;;;;;;;;;;;14.00;60.30;;;;;;5032645;28;19913;-9
2022/12/12 00:41:09;;;;;;;;;;;14.00;60.20;;;;;;5051140;28;20040;-9
2022/12/12 00:43:35;;;;;;;;;;;14.00;60.30;;;;;;5051907;28;19920;-9
2022/12/12 00:46:01;;;;;;;;;;;14.00;60.30;;;;;;5032906;28;20004;-9
2022/12/12 00:48:26;;;;;;;;;;;14.00;60.30;;;;;;5052095;28;19917;-9
2022/12/12 00:50:53;;;;;;;;;;;14.00;60.30;;;;;;5052627;28;20004;-9
2022/12/12 00:53:19;;;;;;;;;;;14.00;60.30;;;;;;5054265;28;20221;-9
2022/12/12 00:55:44;;;;;;;;;;;14.00;60.30;;;;;;5054423;28;19913;-9
2022/12/12 00:58:10;;;;;;;;;;;13.90;60.20;;;;;;5052858;28;20282;-9
2022/12/12 01:00:39;;;;;;;;;;;14.00;60.30;;;;;;5053627;28;19912;-9
2022/12/12 01:03:05;;;;;;;;;;;13.90;60.30;;;;;;5035754;28;19909;-9
2022/12/12 01:05:30;;;;;;;;;;;13.90;60.30;;;;;;5053179;28;19909;-9
2022/12/12 01:07:56;;;;;;;;;;;13.90;60.30;;;;;;5052937;28;20293;-9
2022/12/12 01:10:21;;;;;;;;;;;13.90;60.30;;;;;;5053574;28;20203;-9
2022/12/12 01:12:47;;;;;;;;;;;13.90;60.30;;;;;;5037294;28;19915;-9
2022/12/12 01:15:13;;;;;;;;;;;13.90;60.30;;;;;;5036571;28;19952;-9
2022/12/12 01:17:39;;;;;;;;;;;13.90;60.30;;;;;;5051462;28;19961;-9
2022/12/12 01:20:13;;;;;;;;;;;13.90;60.30;;;;;;5051848;28;19936;-9
2022/12/12 01:22:38;;;;;;;;;;;13.90;60.30;;;;;;5050314;28;19908;-9
2022/12/12 01:25:04;;;;;;;;;;;13.90;60.30;;;;;;5051375;28;19909;-9
2022/12/12 01:27:30;;;;;;;;;;;13.90;60.30;;;;;;5032574;28;20282;-9
2022/12/12 01:30:00;;;;;;;;;;;13.90;60.30;;;;;;5035038;28;19913;-9
2022/12/12 01:32:26;;;;;;;;;;;13.80;60.30;;;;;;5033700;28;20019;-9
2022/12/12 01:34:51;;;;;;;;;;;13.80;60.30;;;;;;5052347;28;20011;-9
2022/12/12 01:37:17;;;;;;;;;;;13.90;60.30;;;;;;5053074;28;19909;-9
2022/12/12 01:39:43;;;;;;;;;;;13.80;60.30;;;;;;5054532;28;20182;-9
2022/12/12 01:42:13;;;;;;;;;;;13.80;60.30;;;;;;5037038;28;20175;-9
2022/12/12 01:44:38;;;;;;;;;;;13.80;60.30;;;;;;5053932;28;19916;-9
2022/12/12 01:47:04;;;;;;;;;;;13.80;60.30;;;;;;5053180;28;19908;-9
2022/12/12 01:49:32;;;;;;;;;;;13.80;60.30;;;;;;5054342;28;19909;-9
2022/12/12 01:52:00;;;;;;;;;;;13.80;60.30;;;;;;5036278;28;19984;-9
2022/12/12 01:54:27;;;;;;;;;;;13.80;60.30;;;;;;5054055;28;19909;-9
2022/12/12 01:56:53;;;;;;;;;;;13.80;60.40;;;;;;5036157;28;20320;-9
2022/12/12 01:59:21;;;;;;;;;;;13.80;60.90;;;;;;5053273;28;19999;-9
2022/12/12 02:01:47;;;;;;;;;;;13.80;60.30;;;;;;5035773;28;19999;-9
2022/12/12 02:04:14;;;;;;;;;;;13.80;60.30;;;;;;5054086;28;20007;-9
2022/12/12 02:06:40;;;;;;;;;;;13.80;60.30;;;;;;5036236;28;19939;-9
2022/12/12 02:09:08;;;;;;;;;;;13.70;60.30;;;;;;5055480;28;20197;-9
2022/12/12 02:11:35;;;;;;;;;;;13.80;60.40;;;;;;5060510;28;19955;-9
2022/12/12 02:14:00;;;;;;;;;;;13.80;60.30;;;;;;5061445;28;20007;-7
2022/12/12 02:16:44;;;;;;;;;;;13.80;60.30;;;;;;5042979;28;20301;-7
2022/12/12 02:19:28;;;;;;;;;;;13.70;60.30;;;;;;5043172;28;19974;-7
2022/12/12 02:22:14;;;;;;;;;;;13.70;60.30;;;;;;5060859;28;19909;-7
2022/12/12 02:24:50;;;;;;;;;;;13.70;60.30;;;;;;5061141;28;20448;-7
2022/12/12 02:27:18;;;;;;;;;;;13.70;60.30;;;;;;5062089;28;19908;-7
2022/12/12 02:30:06;;;;;;;;;;;13.70;60.30;;;;;;5045781;28;19908;-7
2022/12/12 02:32:31;;;;;;;;;;;13.70;60.30;;;;;;5045163;28;19909;-7
2022/12/12 02:35:03;;;;;;;;;;;13.70;60.20;;;;;;5045167;28;19935;-7
2022/12/12 02:37:40;;;;;;;;;;;13.70;60.30;;;;;;5043967;28;19940;-7
2022/12/12 02:40:24;;;;;;;;;;;13.70;60.30;;;;;;5061578;28;19909;-7
2022/12/12 02:42:57;;;;;;;;;;;13.60;60.20;;;;;;5061641;28;19927;-7
2022/12/12 02:45:32;;;;;;;;;;;13.70;60.20;;;;;;5061492;28;19909;-7
2022/12/12 02:48:07;;;;;;;;;;;13.70;60.20;;;;;;5061868;28;20289;-7
2022/12/12 02:50:33;;;;;;;;;;;13.70;60.20;;;;;;5044488;28;20229;-7
2022/12/12 02:52:59;;;;;;;;;;;13.70;60.20;;;;;;5062658;28;19996;-7
2022/12/12 02:55:24;;;;;;;;;;;13.70;60.20;;;;;;5062342;28;20022;-7
2022/12/12 02:57:51;;;;;;;;;;;13.60;60.10;;;;;;5063101;28;19971;-7
2022/12/12 03:00:17;;;;;;;;;;;13.60;60.10;;;;;;5062814;28;19935;-7
2022/12/12 03:02:48;;;;;;;;;;;13.60;60.10;;;;;;5063119;28;19943;-7
2022/12/12 03:08:32;;;;;;;;;;;13.60;60.10;;;;;;5062496;28;20246;-7
2022/12/12 03:11:06;;;;;;;;;;;13.60;60.10;;;;;;5045018;28;19913;-7
2022/12/12 03:13:37;;;;;;;;;;;13.60;60.10;;;;;;5062076;28;19909;-7
2022/12/12 03:16:11;;;;;;;;;;;13.60;60.20;;;;;;5043701;28;19970;-7
2022/12/12 03:18:37;;;;;;;;;;;13.60;60.10;;;;;;5059386;28;19915;-7
2022/12/12 03:21:05;;;;;;;;;;;13.60;60.20;;;;;;5056156;28;19909;-7
2022/12/12 03:23:33;;;;;;;;;;;13.50;60.00;;;;;;5056258;28;19904;-7
2022/12/12 03:26:05;;;;;;;;;;;13.50;60.00;;;;;;5039254;28;20046;-7
2022/12/12 03:28:39;;;;;;;;;;;13.50;60.00;;;;;;5038542;28;19920;-7
2022/12/12 03:31:08;;;;;;;;;;;13.60;60.10;;;;;;5057327;28;20172;-7
2022/12/12 03:33:42;;;;;;;;;;;13.60;60.10;;;;;;5039204;28;19995;-7
2022/12/12 03:36:23;;;;;;;;;;;13.50;60.00;;;;;;5056647;28;19948;-7
2022/12/12 03:38:55;;;;;;;;;;;13.50;60.00;;;;;;5056780;28;19909;-7
2022/12/12 03:41:23;;;;;;;;;;;13.50;60.00;;;;;;5039884;28;19936;-7
2022/12/12 03:43:52;;;;;;;;;;;13.50;60.00;;;;;;5056474;28;19913;-7
2022/12/12 03:46:36;;;;;;;;;;;13.50;60.00;;;;;;5040123;28;19909;-7
2022/12/12 03:49:19;;;;;;;;;;;13.50;60.00;;;;;;5057636;28;20293;-7
2022/12/12 03:51:52;;;;;;;;;;;13.50;60.00;;;;;;5058195;28;20348;-7
2022/12/12 03:54:18;;;;;;;;;;;13.50;60.00;;;;;;5056221;28;19913;-7
2022/12/12 03:56:55;;;;;;;;;;;13.50;60.00;;;;;;5056671;28;19927;-7
2022/12/12 03:59:35;;;;;;;;;;;13.40;59.90;;;;;;5038373;28;19974;-7
2022/12/12 04:02:06;;;;;;;;;;;13.50;60.00;;;;;;5055839;28;19909;-7
2022/12/12 04:04:35;;;;;;;;;;;13.40;59.90;;;;;;5055805;28;20175;-7
2022/12/12 04:07:06;;;;;;;;;;;13.40;59.90;;;;;;5037608;28;19913;-7
2022/12/12 04:15:06;;;;;;;;;;;13.60;59.90;;;;;;5055800;28;19923;-7
2022/12/12 04:17:57;;;;;;;;;;;13.70;59.60;;;;;;5055327;28;20313;-7
2022/12/12 04:23:49;;;;;;;;;;;14.00;58.70;;;;;;5055071;28;19969;-7
2022/12/12 04:29:21;;;;;;;;;;;14.40;57.80;;;;;;5054909;28;20095;-7
2022/12/12 04:31:50;;;;;;;;;;;14.60;57.40;;;;;;5054891;28;20023;-7
2022/12/12 04:34:22;;;;;;;;;;;14.70;57.10;;;;;;5054702;28;19913;-7
2022/12/12 04:36:48;;;;;;;;;;;14.80;56.80;;;;;;5054526;28;19921;-7
2022/12/12 04:39:15;;;;;;;;;;;14.90;56.50;;;;;;5054494;28;19920;-7
2022/12/12 04:41:42;;;;;;;;;;;15.00;56.30;;;;;;5053391;28;20152;-7
2022/12/12 04:44:10;;;;;;;;;;;15.10;56.00;;;;;;5054375;28;20015;-7
2022/12/12 04:46:37;;;;;;;;;;;15.20;55.80;;;;;;5036885;28;20086;-7
2022/12/12 04:49:05;;;;;;;;;;;15.30;55.60;;;;;;5053989;28;19919;-7
2022/12/12 04:51:33;;;;;;;;;;;15.40;55.40;;;;;;5037903;28;19909;-8
2022/12/12 04:54:06;;;;;;;;;;;15.40;55.30;;;;;;5070753;28;19974;-7
2022/12/12 04:56:33;;;;;;;;;;;15.50;55.10;;;;;;5054979;28;19913;-7
2022/12/12 04:58:59;;;;;;;;;;;15.50;55.00;;;;;;5054852;28;20381;-7
2022/12/12 05:01:48;;;;;;;;;;;15.50;54.90;;;;;;5053697;28;19999;-7
2022/12/12 05:04:18;;;;;;;;;;;15.50;54.90;;;;;;5044214;28;20011;-7
2022/12/12 05:06:45;;;;;;;;;;;15.50;54.90;;;;;;5053099;28;19913;-7
2022/12/12 05:09:12;;;;;;;;;;;15.50;54.90;;;;;;5036632;28;20255;-7
2022/12/12 05:11:38;;;;;;;;;;;15.50;54.90;;;;;;5053066;28;19909;-7
2022/12/12 05:14:07;;;;;;;;;;;15.40;54.90;;;;;;5053501;28;19971;-7
2022/12/12 05:16:36;;;;;;;;;;;15.40;55.00;;;;;;5052014;28;19913;-7
2022/12/12 05:19:02;;;;;;;;;;;15.30;55.00;;;;;;5052964;28;19909;-7
2022/12/12 05:21:28;;;;;;;;;;;15.30;55.10;;;;;;5052028;28;19919;-7
2022/12/12 05:23:53;;;;;;;;;;;15.20;55.20;;;;;;5052043;28;20015;-7
2022/12/12 05:26:30;;;;;;;;;;;15.20;55.30;;;;;;5051225;28;20003;-7
2022/12/12 05:28:55;;;;;;;;;;;15.10;55.40;;;;;;5052528;28;20018;-7
2022/12/12 05:31:21;;;;;;;;;;;15.10;55.50;;;;;;5053674;28;20309;-7
2022/12/12 05:33:47;;;;;;;;;;;15.00;55.60;;;;;;5034873;28;19909;-7
2022/12/12 05:36:13;;;;;;;;;;;14.90;55.70;;;;;;5052774;28;19913;-7
2022/12/12 05:38:39;;;;;;;;;;;14.90;55.80;;;;;;5050708;28;19969;-7
2022/12/12 05:41:05;;;;;;;;;;;14.80;55.90;;;;;;5051283;28;19917;-7
2022/12/12 05:43:30;;;;;;;;;;;14.80;56.00;;;;;;5050886;28;20305;-7
2022/12/12 05:45:56;;;;;;;;;;;14.80;56.10;;;;;;5032291;28;19921;-7
2022/12/12 05:48:22;;;;;;;;;;;14.70;56.10;;;;;;5033407;28;19921;-7
2022/12/12 05:50:47;;;;;;;;;;;14.70;56.20;;;;;;5051297;28;19915;-7
2022/12/12 05:53:13;;;;;;;;;;;14.70;56.30;;;;;;5052758;28;19972;-7
2022/12/12 05:55:38;;;;;;;;;;;14.70;56.30;;;;;;5051743;28;19924;-7
2022/12/12 05:58:05;;;;;;;;;;;14.70;56.30;;;;;;5052005;28;19920;-7
2022/12/12 06:00:30;;;;;;;;;;;14.70;56.30;;;;;;5030015;28;19920;-7
2022/12/12 06:02:56;;;;;;;;;;;14.70;56.30;;;;;;5032060;28;19908;-7
2022/12/12 06:05:22;;;;;;;;;;;14.80;56.20;;;;;;5051149;28;20073;-7
2022/12/12 06:07:47;;;;;;;;;;;14.80;56.10;;;;;;5050096;28;19919;-7
2022/12/12 06:10:13;;;;;;;;;;;14.80;56.00;;;;;;5050288;28;20258;-7
2022/12/12 06:12:39;;;;;;;;;;;14.90;55.90;;;;;;5050131;28;19917;-8
2022/12/12 06:15:05;;;;;;;;;;;14.90;55.80;;;;;;5033070;28;19917;-7
2022/12/12 06:17:31;;;;;;;;;;;15.00;55.70;;;;;;5047746;28;19909;-7
2022/12/12 06:19:56;;;;;;;;;;;15.00;55.70;;;;;;5050751;28;19919;-7
2022/12/12 06:22:22;;;;;;;;;;;15.00;55.60;;;;;;5049396;28;20181;-7
2022/12/12 06:24:47;;;;;;;;;;;15.00;55.60;;;;;;5049285;28;20258;-7
2022/12/12 06:27:13;;;;;;;;;;;15.00;55.60;;;;;;5047921;28;19909;-7
2022/12/12 06:29:38;;;;;;;;;;;15.00;55.70;;;;;;5032269;28;19919;-7
2022/12/12 06:32:04;;;;;;;;;;;14.90;55.70;;;;;;5049512;28;19916;-7
2022/12/12 06:34:30;;;;;;;;;;;14.80;55.70;;;;;;5050892;28;20271;-7
2022/12/12 06:36:55;;;;;;;;;;;14.80;55.80;;;;;;5033584;28;19923;-7
2022/12/12 06:39:21;;;;;;;;;;;14.80;55.90;;;;;;5048969;28;19919;-7
2022/12/12 06:41:46;;;;;;;;;;;14.70;56.00;;;;;;5048662;28;19936;-7
2022/12/12 06:44:12;;;;;;;;;;;14.70;56.10;;;;;;5047543;28;19920;-7
2022/12/12 06:46:37;;;;;;;;;;;14.60;56.10;;;;;;5045711;28;19909;-7
2022/12/12 06:49:08;;;;;;;;;;;14.60;56.20;;;;;;5012246;28;20167;-8
2022/12/12 06:51:36;;;;;;;;;;;14.60;56.20;;;;;;5046413;28;20198;-7
2022/12/12 06:54:01;;;;;;;;;;;14.60;56.30;;;;;;5062704;28;20003;-7
2022/12/12 06:56:27;;;;;;;;;;;14.60;56.30;;;;;;5049252;28;20277;-7
2022/12/12 06:58:53;;;;;;;;;;;14.50;56.30;;;;;;5049739;28;19952;-7
2022/12/12 07:01:20;;;;;;;;;;;14.50;56.40;;;;;;5049004;28;20405;-7
2022/12/12 07:03:46;;;;;;;;;;;14.60;56.40;;;;;;5067984;28;19913;-7
2022/12/12 07:06:12;;;;;;;;;;;14.60;56.30;;;;;;5066269;28;19970;-8
2022/12/12 07:08:37;;;;;;;;;;;14.60;56.30;;;;;;5050864;28;19940;-7
2022/12/12 07:11:05;;;;;;;;;;;14.60;56.30;;;;;;5065823;28;20221;-7
2022/12/12 07:13:30;;;;;;;;;;;14.60;56.10;;;;;;5050120;28;19927;-7
2022/12/12 07:15:56;;;;;;;;;;;14.60;56.10;;;;;;5047485;28;19923;-7
2022/12/12 07:18:21;;;;;;;;;;;14.70;56.10;;;;;;5049319;28;20012;-7
2022/12/12 07:20:48;;;;;;;;;;;14.70;56.00;;;;;;5047989;28;19913;-7
2022/12/12 07:23:14;;;;;;;;;;;14.80;56.00;;;;;;5029831;28;19920;-7
2022/12/12 07:25:40;;;;;;;;;;;14.80;56.00;;;;;;5065494;28;19978;-7
2022/12/12 07:28:06;;;;;;;;;;;14.80;56.00;;;;;;5049314;28;19923;-7
2022/12/12 07:30:32;;;;;;;;;;;14.80;56.00;;;;;;5048456;28;19913;-7
2022/12/12 07:32:57;;;;;;;;;;;14.80;56.10;;;;;;5048216;28;19909;-7
2022/12/12 07:35:23;;;;;;;;;;;14.80;56.20;;;;;;5046954;28;20028;-7
2022/12/12 07:37:49;;;;;;;;;;;14.80;56.30;;;;;;5048738;28;19970;-7
2022/12/12 07:40:14;;;;;;;;;;;14.80;56.40;;;;;;5047479;28;20074;-7
2022/12/12 07:42:40;;;;;;;;;;;14.80;56.50;;;;;;5049905;28;19962;-7
2022/12/12 07:45:06;;;;;;;;;;;14.80;56.50;;;;;;5053062;28;19908;-7
2022/12/12 07:47:31;;;;;;;;;;;14.70;56.60;;;;;;5052708;28;20298;-7
2022/12/12 07:49:57;;;;;;;;;;;14.70;56.70;;;;;;5032577;28;19974;-8
2022/12/12 07:52:22;;;;;;;;;;;14.70;56.80;;;;;;5051066;28;19938;-8
2022/12/12 07:54:48;;;;;;;;;;;14.70;56.80;;;;;;5032783;28;19909;-7
2022/12/12 07:57:13;;;;;;;;;;;14.70;56.90;;;;;;5050616;28;20163;-7
2022/12/12 07:59:39;;;;;;;;;;;14.70;56.90;;;;;;5030340;28;20237;-7
2022/12/12 08:02:05;;;;;;;;;;;14.70;56.90;;;;;;5030356;28;19913;-7
2022/12/12 08:04:31;;;;;;;;;;;14.70;56.90;;;;;;5049894;28;19951;-7
2022/12/12 08:06:57;;;;;;;;;;;14.70;57.00;;;;;;5032460;28;19909;-7
2022/12/12 08:09:23;;;;;;;;;;;14.70;57.00;;;;;;5031759;28;20190;-7
2022/12/12 08:11:48;;;;;;;;;;;14.70;57.00;;;;;;5050793;28;19909;-8
2022/12/12 08:14:14;;;;;;;;;;;14.70;56.90;;;;;;5049977;28;20137;-8
2022/12/12 08:16:40;;;;;;;;;;;14.70;56.80;;;;;;5033218;28;19913;-7
2022/12/12 08:19:05;;;;;;;;;;;14.70;56.80;;;;;;5032042;28;19912;-7
2022/12/12 08:21:31;;;;;;;;;;;14.70;56.60;;;;;;5050021;28;19940;-7
2022/12/12 08:23:58;;;;;;;;;;;14.70;56.50;;;;;;5049346;28;19916;-7
2022/12/12 08:26:25;;;;;;;;;;;14.70;56.40;;;;;;5030280;28;20198;-7
2022/12/12 08:28:50;;;;;;;;;;;14.70;56.20;;;;;;5046388;28;20232;-7
2022/12/12 08:31:17;;;;;;;;;;;14.80;56.10;;;;;;5028749;28;19939;-7
2022/12/12 08:33:43;;;;;;;;;;;14.80;55.90;;;;;;5049687;28;19909;-7
2022/12/12 08:36:16;;;;;;;;;;;14.80;55.70;;;;;;5036957;28;20355;-7
2022/12/12 08:38:43;;;;;;;;;;;14.80;55.30;;;;;;5049010;28;20057;-8
2022/12/12 08:41:09;;;;;;;;;;;14.80;55.50;;;;;;5053512;28;19909;-8
2022/12/12 08:43:38;;;;;;;;;;;14.80;55.20;;;;;;5055737;28;19990;-8
2022/12/12 08:46:04;;;;;;;;;;;14.90;55.00;;;;;;5056320;28;19916;-8
2022/12/12 08:48:29;;;;;;;;;;;15.00;54.80;;;;;;5055937;28;19939;-8
2022/12/12 08:50:55;;;;;;;;;;;15.10;54.50;;;;;;5056539;28;20019;-8
2022/12/12 08:53:21;;;;;;;;;;;15.20;54.30;;;;;;5058173;28;19982;-8
2022/12/12 08:55:47;;;;;;;;;;;15.30;54.00;;;;;;5058552;28;19912;-8
2022/12/12 08:58:13;;;;;;;;;;;15.50;53.70;;;;;;5052324;28;20293;-8
2022/12/12 09:00:38;;;;;;;;;;;15.80;53.20;;;;;;5050214;28;19919;-8
2022/12/12 09:03:04;;;;;;;;;;;16.30;52.40;;;;;;5040483;28;19913;-8
2022/12/12 09:05:29;;;;;;;;;;;16.80;51.60;;;;;;5053198;28;19916;-8
2022/12/12 09:07:55;;;;;;;;;;;17.10;50.90;;;;;;5050800;28;20256;-8
2022/12/12 09:10:20;;;;;;;;;;;17.40;50.50;;;;;;5050796;28;20255;-8
2022/12/12 09:12:46;;;;;;;;;;;17.50;50.00;;;;;;5048220;28;19919;-8
2022/12/12 09:15:13;;;;;;;;;;;17.60;49.80;;;;;;5051624;28;20452;-8
2022/12/12 09:17:38;;;;;;;;;;;17.80;49.40;;;;;;5044516;28;19960;-8
2022/12/12 09:20:04;;;;;;;;;;;18.00;49.10;;;;;;5038483;28;19944;-8
2022/12/12 09:22:30;;;;;;;;;;;17.90;48.80;;;;;;5054868;28;19908;-8
2022/12/12 09:24:56;;;;;;;;;;;17.90;48.60;;;;;;5053218;28;19948;-8
2022/12/12 09:27:21;;;;;;;;;;;17.90;48.60;;;;;;5046573;28;19959;-8
2022/12/12 09:29:47;;;;;;;;;;;17.90;48.50;;;;;;5046831;28;19909;-8
2022/12/12 09:32:12;;;;;;;;;;;17.80;48.40;;;;;;5047188;28;20180;-8
2022/12/12 09:34:38;;;;;;;;;;;17.80;48.40;;;;;;5063099;28;19978;-9
2022/12/12 09:37:04;;;;;;;;;;;17.80;48.40;;;;;;5048087;28;20193;-9
2022/12/12 09:39:29;;;;;;;;;;;17.90;48.30;;;;;;5028863;28;20312;-9
2022/12/12 09:41:55;;;;;;;;;;;17.90;48.20;;;;;;5045665;28;19909;-9
2022/12/12 09:44:22;;;;;;;;;;;18.00;48.10;;;;;;5046222;28;19958;-9
2022/12/12 09:46:56;;;;;;;;;;;18.00;48.00;;;;;;5047794;28;19908;-9
2022/12/12 09:49:21;;;;;;;;;;;18.10;47.90;;;;;;5028844;28;19940;-9
2022/12/12 09:51:48;;;;;;;;;;;18.10;47.80;;;;;;5044718;28;20321;-9
2022/12/12 09:54:21;;;;;;;;;;;18.10;47.80;;;;;;5046627;28;20175;-9
2022/12/12 09:56:59;;;;;;;;;;;18.10;47.80;;;;;;5049902;28;20186;-9
2022/12/12 09:59:45;;;;;;;;;;;18.10;47.80;;;;;;5055263;28;19913;-9
2022/12/12 10:02:12;;;;;;;;;;;18.00;47.70;;;;;;5055978;28;20274;-9
2022/12/12 10:04:41;;;;;;;;;;;18.00;47.80;;;;;;5030884;28;19915;-9
2022/12/12 10:07:16;;;;;;;;;;;18.00;47.80;;;;;;5044380;28;19909;-9
2022/12/12 10:09:50;;;;;;;;;;;18.00;47.80;;;;;;5045043;28;19917;-9
2022/12/12 10:12:19;;;;;;;;;;;17.90;47.80;;;;;;5045323;28;19917;-9
2022/12/12 10:14:57;;;;;;;;;;;17.90;47.90;;;;;;5044130;28;19916;-9
2022/12/12 10:17:28;;;;;;;;;;;17.90;47.90;;;;;;5044747;28;19919;-9
2022/12/12 10:20:05;;;;;;;;;;;17.90;47.90;;;;;;5046162;28;19909;-9
2022/12/12 10:22:33;;;;;;;;;;;17.90;47.90;;;;;;5047505;28;20278;-9
2022/12/12 10:25:05;;;;;;;;;;;17.90;47.90;;;;;;5046630;28;20115;-9
2022/12/12 10:27:30;;;;;;;;;;;18.00;47.80;;;;;;5029089;28;19908;-9
2022/12/12 10:29:58;;;;;;;;;;;18.10;47.70;;;;;;5050030;28;20239;-9
2022/12/12 10:32:29;;;;;;;;;;;18.20;47.50;;;;;;5052174;28;19913;-9
2022/12/12 10:35:01;;;;;;;;;;;18.40;47.40;;;;;;5032613;28;19909;-9
2022/12/12 10:37:45;;;;;;;;;;;18.60;47.20;;;;;;5033392;28;19939;-9
2022/12/12 10:40:11;;;;;;;;;;;18.80;46.90;;;;;;5032583;28;20019;-9
2022/12/12 10:42:40;;;;;;;;;;;18.90;46.70;;;;;;5049467;28;20074;-9
2022/12/12 10:45:24;;;;;;;;;;;19.00;46.60;;;;;;5055659;28;19974;-9
2022/12/12 10:47:49;;;;;;;;;;;19.10;46.40;;;;;;5055615;28;20417;-9
2022/12/12 10:50:15;;;;;;;;;;;19.30;46.20;;;;;;5058493;28;20274;-9
2022/12/12 10:52:40;;;;;;;;;;;19.40;46.00;;;;;;5058398;28;19908;-9
2022/12/12 10:55:17;;;;;;;;;;;19.50;45.90;;;;;;5058489;28;19960;-9
2022/12/12 10:57:43;;;;;;;;;;;19.50;45.90;;;;;;5058289;28;20281;-9
2022/12/12 11:00:17;;;;;;;;;;;19.50;45.90;;;;;;5058116;28;20355;-9
2022/12/12 11:02:42;;;;;;;;;;;19.40;45.90;;;;;;5041001;28;19921;-9
2022/12/12 11:05:15;;;;;;;;;;;19.30;46.00;;;;;;5058865;28;19924;-9
2022/12/12 11:07:41;;;;;;;;;;;19.30;46.20;;;;;;5057535;28;19944;-9
2022/12/12 11:10:19;;;;;;;;;;;19.20;46.30;;;;;;5057389;28;19904;-9
2022/12/12 11:12:45;;;;;;;;;;;19.10;46.40;;;;;;5050955;28;19917;-9
2022/12/12 11:15:16;;;;;;;;;;;18.90;46.60;;;;;;5048514;28;19939;-9
2022/12/12 11:17:41;;;;;;;;;;;18.80;46.70;;;;;;5047517;28;20533;-8
2022/12/12 11:20:12;;;;;;;;;;;18.70;46.90;;;;;;5048755;28;20313;-8
2022/12/12 11:22:38;;;;;;;;;;;18.60;47.10;;;;;;5050916;28;19956;-8
2022/12/12 11:25:04;;;;;;;;;;;18.50;47.30;;;;;;5050557;28;20195;-8
2022/12/12 11:27:33;;;;;;;;;;;18.30;47.50;;;;;;5049941;28;19920;-8
2022/12/12 11:30:03;;;;;;;;;;;18.20;47.60;;;;;;5030769;28;19990;-8
2022/12/12 11:32:31;;;;;;;;;;;18.10;47.80;;;;;;5049861;28;19920;-8
2022/12/12 11:34:58;;;;;;;;;;;17.90;47.90;;;;;;5031066;28;19905;-9
2022/12/12 11:37:25;;;;;;;;;;;17.80;48.20;;;;;;5050318;28;19909;-9
2022/12/12 11:39:52;;;;;;;;;;;17.70;48.40;;;;;;5029716;28;19916;-9
2022/12/12 11:42:24;;;;;;;;;;;17.60;48.60;;;;;;5048316;28;19999;-9
2022/12/12 11:44:58;;;;;;;;;;;17.50;48.70;;;;;;5048232;28;19996;-9
2022/12/12 11:47:25;;;;;;;;;;;17.40;48.80;;;;;;5046805;28;20152;-9
2022/12/12 11:49:55;;;;;;;;;;;17.40;48.90;;;;;;5049822;28;20294;-8
2022/12/12 11:52:31;;;;;;;;;;;17.50;48.90;;;;;;5045281;28;19963;-8
2022/12/12 11:54:57;;;;;;;;;;;17.50;48.80;;;;;;5028309;28;20258;-8
2022/12/12 11:57:26;;;;;;;;;;;17.60;48.70;;;;;;5028943;28;19971;-8
2022/12/12 12:00:10;;;;;;;;;;;17.70;48.60;;;;;;5047991;28;19970;-8
2022/12/12 12:02:45;;;;;;;;;;;18.00;48.40;;;;;;5048490;28;20286;-9
2022/12/12 12:05:13;;;;;;;;;;;18.20;48.10;;;;;;5045924;28;20205;-8
2022/12/12 12:07:52;;;;;;;;;;;18.50;47.80;;;;;;5046112;28;19921;-8
2022/12/12 12:10:17;;;;;;;;;;;18.80;47.50;;;;;;5046286;28;20311;-8
2022/12/12 12:13:02;;;;;;;;;;;18.90;47.30;;;;;;5046594;28;20008;-8
2022/12/12 12:15:39;;;;;;;;;;;19.00;47.30;;;;;;5049316;28;19917;-8
2022/12/12 12:18:13;;;;;;;;;;;19.00;47.20;;;;;;5044919;28;19917;-8
2022/12/12 12:20:59;;;;;;;;;;;19.00;47.30;;;;;;5044376;28;19944;-9
2022/12/12 12:23:27;;;;;;;;;;;19.00;47.30;;;;;;5027946;28;20376;-8
2022/12/12 12:25:59;;;;;;;;;;;18.90;47.40;;;;;;5026294;28;20337;-8
2022/12/12 12:28:52;;;;;;;;;;;18.90;47.50;;;;;;5027103;28;19931;-9
2022/12/12 12:31:24;;;;;;;;;;;18.80;47.60;;;;;;5050134;28;19909;-9
2022/12/12 12:34:22;;;;;;;;;;;18.70;47.70;;;;;;5054009;28;19909;-8
2022/12/12 12:37:00;;;;;;;;;;;18.60;47.90;;;;;;5008557;28;20421;-8
2022/12/12 12:39:44;;;;;;;;;;;18.50;48.00;;;;;;5036586;28;20475;-9
2022/12/12 12:42:30;;;;;;;;;;;18.40;48.20;;;;;;5054719;28;19917;-9
2022/12/12 12:45:01;;;;;;;;;;;18.30;48.30;;;;;;5055157;28;20066;-9
2022/12/12 12:47:39;;;;;;;;;;;18.20;48.50;;;;;;5054374;28;19908;-9
2022/12/12 12:50:12;;;;;;;;;;;18.10;48.50;;;;;;5057136;28;20298;-8
2022/12/12 12:52:44;;;;;;;;;;;18.00;48.60;;;;;;5052982;28;19912;-8
2022/12/12 12:55:11;;;;;;;;;;;17.90;48.80;;;;;;5053241;28;20057;-9
2022/12/12 12:57:42;;;;;;;;;;;17.80;48.90;;;;;;5052028;28;19913;-9
2022/12/12 13:00:15;;;;;;;;;;;17.70;49.00;;;;;;5055074;28;20178;-8
2022/12/12 13:02:56;;;;;;;;;;;17.70;49.10;;;;;;5034971;28;20313;-8
2022/12/12 13:05:25;;;;;;;;;;;17.60;49.20;;;;;;5053299;28;20248;-9
2022/12/12 13:07:55;;;;;;;;;;;17.50;49.30;;;;;;5030941;28;19909;-9
2022/12/12 13:10:22;;;;;;;;;;;17.50;49.40;;;;;;5043728;28;19948;-8
2022/12/12 13:12:56;;;;;;;;;;;17.40;49.50;;;;;;5029488;28;20289;-8
2022/12/12 13:15:25;;;;;;;;;;;17.40;49.60;;;;;;5046954;28;19982;-9
2022/12/12 13:17:51;;;;;;;;;;;17.40;49.60;;;;;;5047813;28;20221;-8
2022/12/12 13:20:17;;;;;;;;;;;17.50;49.50;;;;;;5048253;28;20153;-8
2022/12/12 13:22:43;;;;;;;;;;;17.60;49.40;;;;;;5046378;28;19909;-8
2022/12/12 13:25:29;;;;;;;;;;;17.70;49.40;;;;;;5027491;28;19916;-8
2022/12/12 13:27:55;;;;;;;;;;;17.90;49.20;;;;;;5007168;28;20198;-8
2022/12/12 13:30:22;;;;;;;;;;;18.10;49.00;;;;;;5057504;28;20174;-9
2022/12/12 13:33:07;;;;;;;;;;;18.30;48.70;;;;;;5056852;28;19935;-8
2022/12/12 13:35:36;;;;;;;;;;;18.40;48.50;;;;;;5053951;28;19912;-8
2022/12/12 13:38:02;;;;;;;;;;;18.60;48.40;;;;;;5035904;28;19955;-8
2022/12/12 13:40:38;;;;;;;;;;;18.70;48.60;;;;;;5035423;28;19948;-8
2022/12/12 13:43:05;;;;;;;;;;;18.70;48.20;;;;;;5034222;28;19920;-9
2022/12/12 13:45:30;;;;;;;;;;;18.70;48.20;;;;;;5050163;28;20149;-8
2022/12/12 13:48:00;;;;;;;;;;;18.60;48.40;;;;;;5044816;28;19923;-8
2022/12/12 13:50:26;;;;;;;;;;;18.60;48.50;;;;;;5045995;28;19959;-8
2022/12/12 13:53:07;;;;;;;;;;;18.50;48.70;;;;;;5061253;28;19919;-8
2022/12/12 13:55:36;;;;;;;;;;;18.40;48.90;;;;;;5045825;28;20210;-8
2022/12/12 13:58:31;;;;;;;;;;;18.30;49.00;;;;;;5027863;28;20410;-8
2022/12/12 14:01:15;;;;;;;;;;;18.20;49.20;;;;;;5046050;28;20480;-9
2022/12/12 14:03:44;;;;;;;;;;;18.00;49.20;;;;;;5046378;28;20205;-9
2022/12/12 14:06:10;;;;;;;;;;;17.90;49.30;;;;;;5050977;28;19909;-8
2022/12/12 14:08:46;;;;;;;;;;;17.80;49.50;;;;;;5037701;28;20022;-8
2022/12/12 14:11:21;;;;;;;;;;;17.70;49.70;;;;;;5039093;28;20007;-8
2022/12/12 14:13:49;;;;;;;;;;;17.60;49.80;;;;;;5056773;28;19967;-8
2022/12/12 14:16:19;;;;;;;;;;;17.50;50.00;;;;;;5055491;28;19932;-8
2022/12/12 14:18:50;;;;;;;;;;;17.30;50.10;;;;;;5053257;28;20433;-8
2022/12/12 14:21:17;;;;;;;;;;;17.20;50.20;;;;;;5053761;28;19913;-8
2022/12/12 14:23:44;;;;;;;;;;;17.10;50.30;;;;;;5036528;28;19909;-8
2022/12/12 14:26:22;;;;;;;;;;;17.10;50.50;;;;;;5053500;28;20054;-8
2022/12/12 14:29:07;;;;;;;;;;;17.00;50.60;;;;;;5054300;28;19909;-8
2022/12/12 14:31:38;;;;;;;;;;;16.90;50.70;;;;;;5055102;28;20019;-8
2022/12/12 14:34:27;;;;;;;;;;;16.80;50.80;;;;;;5055163;28;19909;-8
2022/12/12 14:37:01;;;;;;;;;;;16.70;50.80;;;;;;5042319;28;20162;-8
2022/12/12 14:39:30;;;;;;;;;;;16.70;51.00;;;;;;5044462;28;20329;-8
2022/12/12 14:41:56;;;;;;;;;;;16.70;51.10;;;;;;5045797;28;19935;-8
2022/12/12 14:44:30;;;;;;;;;;;16.70;51.10;;;;;;5026321;28;20304;-8
2022/12/12 14:47:05;;;;;;;;;;;16.70;51.10;;;;;;5044849;28;20086;-8
2022/12/12 14:49:31;;;;;;;;;;;16.80;51.00;;;;;;5044464;28;20070;-8
2022/12/12 14:51:57;;;;;;;;;;;17.00;50.70;;;;;;5042510;28;19962;-8
2022/12/12 14:54:23;;;;;;;;;;;17.10;50.50;;;;;;5026188;28;20190;-8
2022/12/12 14:56:50;;;;;;;;;;;17.20;50.30;;;;;;5042135;28;19979;-9
2022/12/12 14:59:21;;;;;;;;;;;17.40;50.20;;;;;;5044376;28;20134;-8